createdAt,value
2023-04-16T00:00:27.533Z,95.31
2023-04-16T00:01:27.578Z,95.31
2023-04-16T00:02:27.670Z,95.31
2023-04-16T00:03:27.746Z,95.42
2023-04-16T00:04:27.596Z,95.42
2023-04-16T00:05:27.517Z,95.42
2023-04-16T00:06:27.462Z,95.42
2023-04-16T00:07:27.511Z,95.42
2023-04-16T00:08:27.484Z,95.42
2023-04-16T00:09:28.446Z,95.42
2023-04-16T00:10:27.419Z,95.42
2023-04-16T00:11:27.450Z,95.31
2023-04-16T00:12:27.450Z,95.31
2023-04-16T00:13:27.393Z,95.31
2023-04-16T00:14:27.473Z,95.31
2023-04-16T00:15:27.384Z,95.31
2023-04-16T00:16:27.404Z,95.42
2023-04-16T00:17:27.451Z,95.42
2023-04-16T00:18:27.345Z,95.42
2023-04-16T00:19:27.319Z,95.42
2023-04-16T00:20:27.352Z,95.31
2023-04-16T00:21:27.320Z,95.31
2023-04-16T00:22:28.288Z,95.31
2023-04-16T00:23:27.315Z,95.31
2023-04-16T00:24:27.278Z,95.31
2023-04-16T00:25:27.251Z,95.31
2023-04-16T00:26:27.241Z,95.31
2023-04-16T00:27:27.251Z,95.31
2023-04-16T00:28:27.228Z,95.21
2023-04-16T00:29:27.211Z,95.10
2023-04-16T00:30:27.222Z,95.10
2023-04-16T00:31:27.262Z,95.10
2023-04-16T00:32:27.240Z,95.10
2023-04-16T00:33:27.174Z,95.10
2023-04-16T00:34:27.186Z,95.10
2023-04-16T00:35:27.153Z,95.10
2023-04-16T00:36:27.139Z,95.10
2023-04-16T00:37:27.147Z,95.10
2023-04-16T00:38:27.124Z,95.10
2023-04-16T00:39:27.125Z,95.10
2023-04-16T00:40:27.093Z,95.10
2023-04-16T00:41:27.081Z,95.21
2023-04-16T00:42:27.058Z,95.21
2023-04-16T00:43:27.101Z,95.21
2023-04-16T00:44:27.063Z,95.21
2023-04-16T00:45:27.040Z,95.21
2023-04-16T00:46:27.087Z,95.10
2023-04-16T00:47:27.064Z,95.10
2023-04-16T00:48:26.996Z,95.10
2023-04-16T00:49:27.014Z,95.10
2023-04-16T00:50:26.989Z,95.10
2023-04-16T00:51:27.007Z,95.10
2023-04-16T00:52:27.920Z,95.10
2023-04-16T00:53:26.950Z,95.01
2023-04-16T00:54:26.933Z,95.01
2023-04-16T00:55:26.937Z,95.01
2023-04-16T00:56:26.946Z,95.01
2023-04-16T00:57:26.900Z,95.01
2023-04-16T00:58:26.901Z,95.01
2023-04-16T00:59:26.881Z,95.01
2023-04-16T01:00:26.864Z,95.01
2023-04-16T01:01:27.874Z,95.10
2023-04-16T01:02:26.983Z,95.10
2023-04-16T01:03:27.053Z,95.10
2023-04-16T01:04:26.893Z,95.10
2023-04-16T01:05:26.814Z,95.10
2023-04-16T01:06:26.808Z,95.10
2023-04-16T01:07:26.791Z,95.10
2023-04-16T01:08:27.250Z,95.10
2023-04-16T01:09:26.776Z,95.10
2023-04-16T01:10:26.766Z,95.10
2023-04-16T01:11:26.746Z,95.10
2023-04-16T01:12:26.748Z,95.10
2023-04-16T01:13:26.754Z,95.10
2023-04-16T01:14:26.702Z,95.06
2023-04-16T01:15:26.707Z,95.10
2023-04-16T01:16:27.757Z,95.10
2023-04-16T01:17:26.745Z,95.21
2023-04-16T01:18:26.668Z,95.21
2023-04-16T01:19:26.667Z,95.21
2023-04-16T01:20:26.657Z,95.21
2023-04-16T01:21:26.633Z,95.21
2023-04-16T01:22:26.615Z,95.31
2023-04-16T01:23:26.621Z,95.31
2023-04-16T01:24:26.617Z,95.31
2023-04-16T01:25:26.617Z,95.31
2023-04-16T01:26:26.571Z,95.31
2023-04-16T01:27:26.568Z,95.31
2023-04-16T01:28:26.556Z,95.31
2023-04-16T01:29:26.590Z,95.31
2023-04-16T01:30:26.556Z,95.42
2023-04-16T01:31:26.579Z,95.42
2023-04-16T01:32:27.359Z,95.52
2023-04-16T01:33:26.506Z,95.52
2023-04-16T01:34:26.501Z,95.62
2023-04-16T01:35:27.485Z,95.72
2023-04-16T01:36:26.459Z,95.72
2023-04-16T01:37:28.006Z,95.72
2023-04-16T01:38:26.454Z,95.72
2023-04-16T01:39:26.451Z,95.72
2023-04-16T01:40:27.879Z,95.83
2023-04-16T01:41:31.295Z,95.83
2023-04-16T01:42:26.420Z,95.93
2023-04-16T01:43:26.447Z,95.93
2023-04-16T01:44:26.675Z,96.03
2023-04-16T01:45:26.373Z,96.03
2023-04-16T01:46:27.367Z,96.03
2023-04-16T01:47:26.476Z,96.14
2023-04-16T01:48:26.337Z,96.14
2023-04-16T01:49:26.351Z,96.23
2023-04-16T01:50:26.381Z,96.23
2023-04-16T01:51:26.324Z,96.23
2023-04-16T01:52:26.300Z,96.34
2023-04-16T01:53:26.306Z,96.34
2023-04-16T01:54:26.292Z,96.44
2023-04-16T01:55:26.258Z,96.44
2023-04-16T01:56:27.235Z,96.55
2023-04-16T01:57:26.248Z,96.55
2023-04-16T01:58:27.222Z,96.65
2023-04-16T01:59:26.244Z,96.65
2023-04-16T02:00:26.227Z,96.65
2023-04-16T02:01:26.316Z,96.65
2023-04-16T02:02:26.776Z,96.65
2023-04-16T02:03:27.346Z,96.65
2023-04-16T02:04:26.202Z,96.65
2023-04-16T02:05:26.178Z,96.65
2023-04-16T02:06:26.603Z,96.65
2023-04-16T02:07:26.147Z,96.75
2023-04-16T02:08:27.072Z,96.75
2023-04-16T02:09:26.131Z,96.90
2023-04-16T02:10:26.164Z,96.95
2023-04-16T02:11:26.572Z,96.95
2023-04-16T02:12:26.078Z,96.95
2023-04-16T02:13:27.162Z,96.95
2023-04-16T02:14:27.020Z,96.95
2023-04-16T02:15:26.044Z,97.06
2023-04-16T02:16:26.322Z,97.16
2023-04-16T02:17:26.071Z,97.16
2023-04-16T02:18:26.015Z,97.16
2023-04-16T02:19:26.019Z,97.16
2023-04-16T02:20:26.990Z,97.16
2023-04-16T02:21:25.991Z,97.16
2023-04-16T02:22:27.413Z,97.16
2023-04-16T02:23:25.954Z,97.27
2023-04-16T02:24:26.202Z,97.27
2023-04-16T02:25:26.391Z,97.31
2023-04-16T02:26:27.811Z,97.41
2023-04-16T02:27:25.933Z,97.37
2023-04-16T02:28:25.902Z,97.47
2023-04-16T02:29:25.875Z,97.47
2023-04-16T02:30:26.013Z,97.57
2023-04-16T02:31:25.896Z,97.57
2023-04-16T02:32:26.829Z,97.57
2023-04-16T02:33:25.873Z,97.67
2023-04-16T02:34:27.303Z,97.67
2023-04-16T02:35:25.808Z,97.67
2023-04-16T02:36:27.263Z,97.67
2023-04-16T02:37:25.788Z,97.67
2023-04-16T02:38:26.609Z,97.67
2023-04-16T02:39:25.794Z,97.67
2023-04-16T02:40:27.232Z,97.78
2023-04-16T02:41:25.764Z,97.78
2023-04-16T02:42:26.702Z,97.78
2023-04-16T02:43:26.312Z,97.78
2023-04-16T02:44:26.684Z,97.78
2023-04-16T02:45:25.703Z,97.78
2023-04-16T02:46:25.788Z,97.78
2023-04-16T02:47:25.730Z,97.78
2023-04-16T02:48:26.152Z,97.78
2023-04-16T02:49:26.633Z,97.88
2023-04-16T02:50:26.629Z,97.88
2023-04-16T02:51:25.649Z,97.88
2023-04-16T02:52:25.833Z,98.03
2023-04-16T02:53:25.630Z,97.99
2023-04-16T02:54:26.577Z,98.08
2023-04-16T02:55:25.625Z,98.08
2023-04-16T02:56:25.678Z,98.08
2023-04-16T02:57:25.573Z,98.19
2023-04-16T02:58:25.645Z,98.19
2023-04-16T02:59:25.550Z,98.19
2023-04-16T03:00:26.345Z,98.19
2023-04-16T03:01:25.573Z,98.19
2023-04-16T03:02:26.182Z,98.19
2023-04-16T03:03:25.561Z,98.19
2023-04-16T03:04:27.024Z,98.29
2023-04-16T03:05:25.495Z,98.29
2023-04-16T03:06:27.422Z,98.29
2023-04-16T03:07:25.454Z,98.39
2023-04-16T03:08:25.488Z,98.39
2023-04-16T03:09:25.432Z,98.39
2023-04-16T03:10:26.880Z,98.39
2023-04-16T03:11:25.430Z,98.39
2023-04-16T03:12:26.860Z,98.39
2023-04-16T03:13:25.405Z,98.39
2023-04-16T03:14:25.838Z,98.39
2023-04-16T03:15:25.401Z,98.39
2023-04-16T03:16:26.338Z,98.39
2023-04-16T03:17:25.383Z,98.39
2023-04-16T03:18:25.350Z,98.39
2023-04-16T03:19:25.328Z,98.39
2023-04-16T03:20:26.149Z,98.39
2023-04-16T03:21:25.311Z,98.39
2023-04-16T03:22:26.119Z,98.39
2023-04-16T03:23:25.279Z,98.39
2023-04-16T03:24:25.281Z,98.39
2023-04-16T03:25:25.264Z,98.39
2023-04-16T03:26:26.120Z,98.39
2023-04-16T03:27:25.273Z,98.29
2023-04-16T03:28:26.686Z,98.29
2023-04-16T03:29:25.222Z,98.29
2023-04-16T03:30:26.707Z,98.29
2023-04-16T03:31:25.220Z,98.19
2023-04-16T03:32:25.650Z,98.19
2023-04-16T03:33:25.180Z,98.19
2023-04-16T03:34:25.164Z,98.19
2023-04-16T03:35:25.175Z,98.08
2023-04-16T03:36:26.101Z,98.08
2023-04-16T03:37:26.084Z,98.08
2023-04-16T03:38:26.080Z,98.08
2023-04-16T03:39:25.131Z,98.08
2023-04-16T03:40:25.602Z,98.08
2023-04-16T03:41:25.109Z,98.19
2023-04-16T03:42:26.022Z,98.08
2023-04-16T03:43:25.104Z,98.19
2023-04-16T03:44:25.133Z,98.19
2023-04-16T03:45:25.035Z,98.19
2023-04-16T03:46:25.051Z,98.19
2023-04-16T03:47:25.139Z,98.19
2023-04-16T03:48:25.974Z,98.19
2023-04-16T03:49:25.017Z,98.19
2023-04-16T03:50:25.057Z,98.29
2023-04-16T03:51:25.012Z,98.19
2023-04-16T03:52:24.972Z,98.29
2023-04-16T03:53:24.974Z,98.29
2023-04-16T03:54:24.961Z,98.29
2023-04-16T03:55:24.928Z,98.29
2023-04-16T03:56:25.392Z,98.39
2023-04-16T03:57:24.898Z,98.39
2023-04-16T03:58:24.925Z,98.39
2023-04-16T03:59:24.933Z,98.39
2023-04-16T04:00:24.896Z,98.39
2023-04-16T04:01:24.864Z,98.50
2023-04-16T04:02:25.063Z,98.50
2023-04-16T04:03:25.160Z,98.50
2023-04-16T04:04:25.003Z,98.60
2023-04-16T04:05:24.835Z,98.60
2023-04-16T04:06:25.840Z,98.60
2023-04-16T04:07:24.792Z,98.60
2023-04-16T04:08:24.803Z,98.60
2023-04-16T04:09:24.770Z,98.60
2023-04-16T04:10:24.807Z,98.70
2023-04-16T04:11:24.748Z,98.70
2023-04-16T04:12:24.792Z,98.70
2023-04-16T04:13:24.740Z,98.80
2023-04-16T04:14:26.205Z,98.80
2023-04-16T04:15:24.709Z,98.80
2023-04-16T04:16:24.780Z,98.80
2023-04-16T04:17:24.773Z,98.91
2023-04-16T04:18:25.674Z,98.91
2023-04-16T04:19:24.669Z,98.91
2023-04-16T04:20:24.698Z,98.91
2023-04-16T04:21:24.697Z,99.01
2023-04-16T04:22:24.639Z,99.01
2023-04-16T04:23:24.613Z,99.01
2023-04-16T04:24:24.638Z,99.01
2023-04-16T04:25:24.601Z,99.01
2023-04-16T04:26:24.667Z,99.01
2023-04-16T04:27:24.587Z,99.01
2023-04-16T04:28:24.592Z,99.01
2023-04-16T04:29:24.565Z,99.01
2023-04-16T04:30:26.082Z,99.01
2023-04-16T04:31:24.579Z,99.01
2023-04-16T04:32:26.075Z,99.01
2023-04-16T04:33:24.528Z,99.01
2023-04-16T04:34:24.540Z,99.01
2023-04-16T04:35:24.489Z,99.01
2023-04-16T04:36:24.488Z,99.01
2023-04-16T04:37:25.948Z,99.11
2023-04-16T04:38:24.505Z,99.11
2023-04-16T04:39:24.445Z,99.11
2023-04-16T04:40:24.460Z,99.11
2023-04-16T04:41:24.422Z,99.11
2023-04-16T04:42:26.420Z,99.11
2023-04-16T04:43:24.439Z,99.21
2023-04-16T04:44:25.378Z,99.21
2023-04-16T04:45:24.415Z,99.21
2023-04-16T04:46:24.867Z,99.21
2023-04-16T04:47:24.369Z,99.21
2023-04-16T04:48:25.342Z,99.21
2023-04-16T04:49:24.338Z,99.21
2023-04-16T04:50:25.165Z,99.21
2023-04-16T04:51:24.305Z,99.32
2023-04-16T04:52:24.873Z,99.32
2023-04-16T04:53:24.350Z,99.32
2023-04-16T04:54:25.756Z,99.32
2023-04-16T04:55:24.324Z,99.42
2023-04-16T04:56:24.316Z,99.42
2023-04-16T04:57:24.266Z,99.42
2023-04-16T04:58:25.198Z,99.42
2023-04-16T04:59:24.703Z,99.38
2023-04-16T05:00:25.198Z,99.38
2023-04-16T05:01:24.240Z,99.48
2023-04-16T05:02:24.511Z,99.38
2023-04-16T05:03:24.318Z,99.48
2023-04-16T05:04:25.652Z,99.48
2023-04-16T05:05:24.177Z,99.48
2023-04-16T05:06:24.225Z,99.48
2023-04-16T05:07:24.146Z,99.48
2023-04-16T05:08:24.155Z,99.48
2023-04-16T05:09:24.913Z,99.48
2023-04-16T05:10:25.585Z,99.48
2023-04-16T05:11:24.118Z,99.48
2023-04-16T05:12:24.375Z,99.48
2023-04-16T05:13:24.913Z,99.48
2023-04-16T05:14:26.038Z,99.48
2023-04-16T05:15:24.101Z,99.48
2023-04-16T05:16:24.684Z,99.48
2023-04-16T05:17:24.231Z,99.48
2023-04-16T05:18:24.880Z,99.48
2023-04-16T05:19:24.024Z,99.48
2023-04-16T05:20:24.009Z,99.48
2023-04-16T05:21:23.992Z,99.48
2023-04-16T05:22:24.166Z,99.48
2023-04-16T05:23:23.997Z,99.48
2023-04-16T05:24:24.076Z,99.48
2023-04-16T05:25:23.951Z,99.48
2023-04-16T05:26:23.976Z,99.38
2023-04-16T05:27:23.981Z,99.38
2023-04-16T05:28:23.931Z,99.38
2023-04-16T05:29:23.903Z,99.38
2023-04-16T05:30:23.884Z,99.38
2023-04-16T05:31:24.000Z,99.38
2023-04-16T05:32:24.344Z,99.38
2023-04-16T05:33:23.853Z,99.38
2023-04-16T05:34:23.842Z,99.38
2023-04-16T05:35:23.840Z,99.38
2023-04-16T05:36:23.817Z,99.38
2023-04-16T05:37:23.825Z,99.38
2023-04-16T05:38:23.834Z,99.38
2023-04-16T05:39:23.781Z,99.48
2023-04-16T05:40:23.823Z,99.48
2023-04-16T05:41:23.773Z,99.38
2023-04-16T05:42:23.771Z,99.48
2023-04-16T05:43:23.738Z,99.48
2023-04-16T05:44:25.245Z,99.48
2023-04-16T05:45:24.055Z,99.48
2023-04-16T05:46:23.840Z,99.48
2023-04-16T05:47:23.723Z,99.48
2023-04-16T05:48:24.173Z,99.48
2023-04-16T05:49:23.695Z,99.48
2023-04-16T05:50:23.713Z,99.48
2023-04-16T05:51:23.656Z,99.48
2023-04-16T05:52:23.673Z,99.48
2023-04-16T05:53:23.671Z,99.48
2023-04-16T05:54:23.707Z,99.48
2023-04-16T05:55:23.617Z,99.48
2023-04-16T05:56:23.590Z,99.48
2023-04-16T05:57:23.611Z,99.48
2023-04-16T05:58:23.659Z,99.48
2023-04-16T05:59:23.570Z,99.48
2023-04-16T06:00:23.573Z,99.48
2023-04-16T06:01:23.545Z,99.48
2023-04-16T06:02:23.667Z,99.48
2023-04-16T06:03:23.592Z,99.48
2023-04-16T06:04:23.612Z,99.48
2023-04-16T06:05:23.545Z,99.48
2023-04-16T06:06:23.714Z,99.48
2023-04-16T06:07:23.536Z,99.48
2023-04-16T06:08:23.726Z,99.58
2023-04-16T06:09:23.446Z,99.58
2023-04-16T06:10:23.710Z,99.58
2023-04-16T06:11:23.426Z,99.58
2023-04-16T06:12:23.633Z,99.58
2023-04-16T06:13:23.427Z,99.68
2023-04-16T06:14:23.414Z,99.68
2023-04-16T06:15:23.398Z,99.68
2023-04-16T06:16:23.733Z,99.68
2023-04-16T06:17:23.483Z,99.68
2023-04-16T06:18:23.380Z,99.58
2023-04-16T06:19:23.364Z,99.68
2023-04-16T06:20:24.828Z,99.68
2023-04-16T06:21:23.331Z,99.68
2023-04-16T06:22:23.336Z,99.68
2023-04-16T06:23:23.324Z,99.79
2023-04-16T06:24:23.303Z,99.79
2023-04-16T06:25:23.328Z,99.79
2023-04-16T06:26:23.278Z,99.79
2023-04-16T06:27:23.266Z,99.79
2023-04-16T06:28:23.254Z,99.79
2023-04-16T06:29:33.507Z,99.79
2023-04-16T06:30:25.207Z,99.79
2023-04-16T06:31:23.250Z,99.79
2023-04-16T06:32:23.256Z,99.79
2023-04-16T06:33:23.223Z,99.68
2023-04-16T06:34:23.177Z,99.68
2023-04-16T06:35:23.178Z,99.68
2023-04-16T06:36:23.149Z,99.68
2023-04-16T06:37:23.151Z,99.68
2023-04-16T06:38:23.186Z,99.68
2023-04-16T06:39:23.135Z,99.68
2023-04-16T06:40:23.120Z,99.68
2023-04-16T06:41:23.106Z,99.68
2023-04-16T06:42:23.254Z,99.68
2023-04-16T06:43:24.074Z,99.68
2023-04-16T06:44:23.100Z,99.58
2023-04-16T06:45:23.046Z,99.58
2023-04-16T06:46:24.044Z,99.48
2023-04-16T06:47:23.083Z,99.48
2023-04-16T06:48:23.043Z,99.48
2023-04-16T06:49:23.153Z,99.38
2023-04-16T06:50:23.022Z,99.27
2023-04-16T06:51:24.058Z,99.27
2023-04-16T06:52:22.970Z,99.12
2023-04-16T06:53:22.987Z,99.02
2023-04-16T06:54:22.974Z,98.92
2023-04-16T06:55:22.978Z,98.71
2023-04-16T06:56:23.020Z,98.51
2023-04-16T06:57:22.980Z,98.41
2023-04-16T06:58:22.900Z,98.20
2023-04-16T06:59:22.922Z,98.10
2023-04-16T07:00:22.921Z,97.99
2023-04-16T07:01:23.006Z,97.79
2023-04-16T07:02:22.968Z,97.69
2023-04-16T07:03:23.986Z,97.48
2023-04-16T07:04:22.870Z,97.38
2023-04-16T07:05:22.866Z,97.17
2023-04-16T07:06:22.839Z,97.07
2023-04-16T07:07:22.826Z,96.97
2023-04-16T07:08:22.817Z,96.87
2023-04-16T07:09:22.812Z,96.77
2023-04-16T07:10:23.634Z,96.77
2023-04-16T07:11:22.784Z,96.66
2023-04-16T07:12:23.079Z,96.56
2023-04-16T07:13:22.748Z,96.45
2023-04-16T07:14:22.766Z,96.35
2023-04-16T07:15:22.714Z,96.25
2023-04-16T07:16:22.791Z,96.15
2023-04-16T07:17:23.159Z,96.10
2023-04-16T07:18:22.760Z,96.10
2023-04-16T07:19:22.687Z,96.10
2023-04-16T07:20:22.678Z,96.00
2023-04-16T07:21:22.676Z,96.00
2023-04-16T07:22:22.638Z,95.90
2023-04-16T07:23:22.704Z,95.79
2023-04-16T07:24:22.647Z,95.69
2023-04-16T07:25:22.646Z,95.59
2023-04-16T07:26:22.612Z,95.59
2023-04-16T07:27:23.579Z,95.44
2023-04-16T07:28:22.641Z,95.44
2023-04-16T07:29:22.621Z,95.34
2023-04-16T07:30:22.561Z,95.14
2023-04-16T07:31:22.572Z,95.03
2023-04-16T07:32:23.096Z,94.93
2023-04-16T07:33:22.537Z,94.73
2023-04-16T07:34:22.551Z,94.62
2023-04-16T07:35:22.561Z,94.42
2023-04-16T07:36:22.486Z,94.21
2023-04-16T07:37:22.494Z,94.11
2023-04-16T07:38:23.437Z,94.01
2023-04-16T07:39:22.488Z,93.76
2023-04-16T07:40:22.688Z,93.66
2023-04-16T07:41:22.464Z,93.55
2023-04-16T07:42:22.425Z,93.45
2023-04-16T07:43:22.443Z,93.35
2023-04-16T07:44:22.408Z,93.04
2023-04-16T07:45:22.425Z,92.83
2023-04-16T07:46:22.448Z,92.74
2023-04-16T07:47:22.422Z,92.53
2023-04-16T07:48:22.409Z,92.43
2023-04-16T07:49:22.374Z,92.32
2023-04-16T07:50:22.349Z,92.12
2023-04-16T07:51:22.352Z,91.82
2023-04-16T07:52:22.315Z,91.61
2023-04-16T07:53:23.366Z,91.61
2023-04-16T07:54:22.294Z,91.50
2023-04-16T07:55:22.297Z,91.61
2023-04-16T07:56:22.259Z,91.71
2023-04-16T07:57:22.267Z,91.71
2023-04-16T07:58:22.275Z,91.61
2023-04-16T07:59:23.978Z,91.46
2023-04-16T08:00:22.324Z,91.36
2023-04-16T08:01:22.226Z,91.26
2023-04-16T08:02:22.294Z,91.16
2023-04-16T08:03:22.308Z,91.05
2023-04-16T08:04:22.407Z,90.95
2023-04-16T08:05:22.287Z,90.95
2023-04-16T08:06:22.150Z,90.84
2023-04-16T08:07:22.157Z,90.60
2023-04-16T08:08:22.146Z,90.50
2023-04-16T08:09:23.133Z,90.30
2023-04-16T08:10:22.157Z,90.19
2023-04-16T08:11:22.320Z,90.09
2023-04-16T08:12:22.092Z,89.98
2023-04-16T08:13:22.099Z,89.78
2023-04-16T08:14:22.111Z,89.58
2023-04-16T08:15:22.084Z,89.37
2023-04-16T08:16:22.139Z,89.12
2023-04-16T08:17:22.364Z,89.03
2023-04-16T08:18:22.026Z,88.82
2023-04-16T08:19:22.056Z,88.71
2023-04-16T08:20:22.024Z,88.71
2023-04-16T08:21:22.063Z,88.71
2023-04-16T08:22:22.002Z,88.51
2023-04-16T08:23:21.986Z,88.41
2023-04-16T08:24:22.967Z,88.20
2023-04-16T08:25:21.944Z,88.00
2023-04-16T08:26:21.952Z,88.00
2023-04-16T08:27:21.998Z,88.10
2023-04-16T08:28:21.949Z,88.10
2023-04-16T08:29:21.971Z,87.96
2023-04-16T08:30:22.064Z,87.85
2023-04-16T08:31:21.959Z,87.45
2023-04-16T08:32:21.930Z,87.14
2023-04-16T08:33:21.896Z,86.94
2023-04-16T08:34:22.884Z,86.73
2023-04-16T08:35:21.858Z,86.57
2023-04-16T08:36:21.856Z,86.43
2023-04-16T08:37:21.840Z,86.43
2023-04-16T08:38:22.780Z,86.53
2023-04-16T08:39:21.816Z,86.63
2023-04-16T08:40:21.845Z,86.53
2023-04-16T08:41:21.820Z,86.22
2023-04-16T08:42:21.781Z,86.12
2023-04-16T08:43:21.759Z,86.22
2023-04-16T08:44:21.773Z,86.22
2023-04-16T08:45:21.764Z,85.97
2023-04-16T08:46:21.769Z,85.88
2023-04-16T08:47:21.801Z,85.57
2023-04-16T08:48:21.692Z,85.26
2023-04-16T08:49:21.709Z,85.06
2023-04-16T08:50:22.162Z,84.91
2023-04-16T08:51:21.669Z,84.81
2023-04-16T08:52:21.714Z,85.02
2023-04-16T08:53:21.665Z,85.02
2023-04-16T08:54:21.632Z,84.57
2023-04-16T08:55:21.649Z,84.47
2023-04-16T08:56:21.615Z,84.36
2023-04-16T08:57:21.611Z,84.26
2023-04-16T08:58:22.597Z,83.54
2023-04-16T08:59:21.633Z,83.24
2023-04-16T09:00:21.574Z,83.30
2023-04-16T09:01:21.600Z,83.30
2023-04-16T09:02:21.711Z,83.61
2023-04-16T09:03:21.812Z,83.71
2023-04-16T09:04:21.585Z,83.57
2023-04-16T09:05:21.520Z,83.06
2023-04-16T09:06:22.498Z,82.45
2023-04-16T09:07:21.482Z,82.04
2023-04-16T09:08:21.507Z,81.73
2023-04-16T09:09:21.459Z,81.73
2023-04-16T09:10:22.438Z,81.73
2023-04-16T09:11:21.455Z,81.73
2023-04-16T09:12:21.432Z,81.32
2023-04-16T09:13:21.441Z,81.02
2023-04-16T09:14:22.371Z,81.02
2023-04-16T09:15:21.624Z,81.12
2023-04-16T09:16:21.486Z,81.39
2023-04-16T09:17:21.651Z,81.49
2023-04-16T09:18:21.499Z,81.80
2023-04-16T09:19:21.379Z,81.70
2023-04-16T09:20:21.443Z,81.59
2023-04-16T09:21:23.760Z,81.70
2023-04-16T09:22:21.319Z,81.90
2023-04-16T09:23:21.894Z,82.00
2023-04-16T09:24:21.363Z,81.96
2023-04-16T09:25:21.312Z,81.59
2023-04-16T09:26:22.036Z,81.59
2023-04-16T09:27:23.270Z,81.70
2023-04-16T09:28:21.284Z,81.56
2023-04-16T09:29:21.274Z,81.45
2023-04-16T09:30:22.219Z,81.15
2023-04-16T09:31:22.271Z,80.78
2023-04-16T09:32:22.222Z,80.78
2023-04-16T09:33:21.732Z,80.57
2023-04-16T09:34:22.456Z,80.78
2023-04-16T09:35:21.313Z,80.98
2023-04-16T09:36:21.466Z,81.18
2023-04-16T09:37:22.622Z,81.39
2023-04-16T09:38:22.115Z,81.59
2023-04-16T09:39:21.529Z,81.35
2023-04-16T09:40:22.649Z,81.15
2023-04-16T09:41:21.136Z,81.04
2023-04-16T09:42:22.058Z,81.04
2023-04-16T09:43:21.120Z,80.64
2023-04-16T09:44:21.138Z,80.13
2023-04-16T09:45:21.158Z,79.52
2023-04-16T09:46:21.216Z,79.52
2023-04-16T09:47:21.112Z,79.52
2023-04-16T09:48:21.192Z,80.02
2023-04-16T09:49:21.040Z,80.29
2023-04-16T09:50:21.096Z,80.29
2023-04-16T09:51:21.124Z,80.19
2023-04-16T09:52:22.012Z,80.09
2023-04-16T09:53:20.998Z,79.99
2023-04-16T09:54:21.036Z,79.95
2023-04-16T09:55:21.063Z,79.85
2023-04-16T09:56:21.151Z,79.54
2023-04-16T09:57:20.978Z,79.24
2023-04-16T09:58:20.946Z,78.73
2023-04-16T09:59:22.926Z,78.63
2023-04-16T10:00:21.722Z,78.73
2023-04-16T10:01:21.029Z,78.73
2023-04-16T10:02:21.896Z,78.83
2023-04-16T10:03:21.055Z,78.93
2023-04-16T10:04:21.175Z,79.24
2023-04-16T10:05:21.764Z,79.20
2023-04-16T10:06:20.873Z,79.00
2023-04-16T10:07:21.290Z,78.59
2023-04-16T10:08:20.866Z,77.57
2023-04-16T10:09:22.015Z,77.06
2023-04-16T10:10:22.257Z,76.82
2023-04-16T10:11:21.713Z,76.35
2023-04-16T10:12:20.827Z,75.95
2023-04-16T10:13:20.847Z,75.02
2023-04-16T10:14:21.106Z,75.33
2023-04-16T10:15:22.215Z,75.64
2023-04-16T10:16:20.793Z,75.84
2023-04-16T10:17:20.867Z,75.74
2023-04-16T10:18:20.829Z,75.74
2023-04-16T10:19:20.814Z,75.91
2023-04-16T10:20:22.142Z,75.91
2023-04-16T10:21:21.692Z,76.01
2023-04-16T10:22:20.677Z,75.77
2023-04-16T10:23:22.129Z,75.77
2023-04-16T10:24:20.647Z,76.07
2023-04-16T10:25:20.772Z,75.94
2023-04-16T10:26:20.761Z,75.23
2023-04-16T10:27:21.409Z,74.62
2023-04-16T10:28:21.072Z,74.01
2023-04-16T10:29:22.112Z,74.01
2023-04-16T10:30:21.401Z,74.07
2023-04-16T10:31:20.617Z,74.28
2023-04-16T10:32:22.068Z,74.28
2023-04-16T10:33:20.564Z,74.07
2023-04-16T10:34:21.676Z,73.83
2023-04-16T10:35:21.318Z,73.22
2023-04-16T10:36:20.524Z,72.82
2023-04-16T10:37:21.337Z,72.52
2023-04-16T10:38:20.491Z,72.41
2023-04-16T10:39:20.556Z,72.31
2023-04-16T10:40:21.922Z,72.31
2023-04-16T10:41:20.609Z,72.11
2023-04-16T10:42:20.440Z,72.31
2023-04-16T10:43:20.737Z,72.48
2023-04-16T10:44:20.439Z,72.58
2023-04-16T10:45:20.586Z,72.28
2023-04-16T10:46:20.507Z,72.48
2023-04-16T10:47:20.413Z,72.69
2023-04-16T10:48:20.386Z,73.19
2023-04-16T10:49:20.383Z,73.60
2023-04-16T10:50:20.357Z,73.50
2023-04-16T10:51:20.381Z,73.19
2023-04-16T10:52:20.366Z,72.99
2023-04-16T10:53:21.788Z,72.58
2023-04-16T10:54:20.439Z,72.38
2023-04-16T10:55:20.316Z,72.08
2023-04-16T10:56:20.316Z,71.77
2023-04-16T10:57:21.077Z,71.67
2023-04-16T10:58:20.726Z,71.67
2023-04-16T10:59:20.579Z,71.88
2023-04-16T11:00:21.216Z,71.80
2023-04-16T11:01:20.233Z,71.91
2023-04-16T11:02:20.486Z,72.11
2023-04-16T11:03:20.334Z,72.65
2023-04-16T11:04:20.431Z,73.06
2023-04-16T11:05:20.177Z,73.67
2023-04-16T11:06:20.315Z,74.14
2023-04-16T11:07:20.188Z,74.34
2023-04-16T11:08:20.334Z,73.43
2023-04-16T11:09:20.148Z,73.22
2023-04-16T11:10:21.081Z,73.33
2023-04-16T11:11:21.614Z,72.99
2023-04-16T11:12:20.509Z,73.29
2023-04-16T11:13:20.913Z,73.09
2023-04-16T11:14:20.298Z,72.78
2023-04-16T11:15:21.536Z,72.69
2023-04-16T11:16:21.583Z,72.89
2023-04-16T11:17:21.434Z,73.09
2023-04-16T11:18:20.850Z,72.58
2023-04-16T11:19:20.164Z,72.17
2023-04-16T11:20:21.575Z,71.77
2023-04-16T11:21:21.545Z,71.26
2023-04-16T11:22:20.613Z,70.96
2023-04-16T11:23:20.110Z,70.99
2023-04-16T11:24:19.983Z,71.20
2023-04-16T11:25:19.983Z,71.30
2023-04-16T11:26:20.051Z,71.09
2023-04-16T11:27:20.006Z,71.20
2023-04-16T11:28:19.970Z,71.30
2023-04-16T11:29:20.034Z,71.50
2023-04-16T11:30:20.021Z,71.88
2023-04-16T11:31:20.223Z,71.88
2023-04-16T11:32:19.909Z,72.08
2023-04-16T11:33:20.133Z,71.47
2023-04-16T11:34:20.104Z,71.16
2023-04-16T11:35:19.868Z,70.55
2023-04-16T11:36:21.842Z,69.95
2023-04-16T11:37:19.873Z,69.34
2023-04-16T11:38:19.857Z,69.34
2023-04-16T11:39:19.819Z,69.43
2023-04-16T11:40:20.113Z,69.64
2023-04-16T11:41:19.816Z,69.03
2023-04-16T11:42:21.361Z,68.93
2023-04-16T11:43:19.805Z,69.23
2023-04-16T11:44:19.756Z,69.51
2023-04-16T11:45:20.461Z,69.71
2023-04-16T11:46:27.466Z,69.91
2023-04-16T11:47:20.945Z,69.98
2023-04-16T11:48:19.805Z,69.98
2023-04-16T11:49:19.704Z,69.78
2023-04-16T11:50:19.706Z,69.24
2023-04-16T11:51:19.657Z,69.13
2023-04-16T11:52:19.726Z,69.03
2023-04-16T11:53:19.675Z,68.83
2023-04-16T11:54:19.652Z,68.83
2023-04-16T11:55:19.656Z,68.60
2023-04-16T11:56:21.074Z,68.19
2023-04-16T11:57:19.623Z,67.89
2023-04-16T11:58:19.650Z,67.76
2023-04-16T11:59:19.792Z,67.25
2023-04-16T12:00:24.009Z,66.94
2023-04-16T12:01:21.456Z,66.61
2023-04-16T12:02:20.690Z,66.50
2023-04-16T12:03:19.744Z,66.50
2023-04-16T12:04:19.703Z,66.30
2023-04-16T12:05:19.599Z,66.10
2023-04-16T12:06:20.862Z,65.77
2023-04-16T12:07:19.636Z,65.56
2023-04-16T12:08:19.832Z,65.26
2023-04-16T12:09:19.479Z,65.16
2023-04-16T12:10:20.935Z,65.26
2023-04-16T12:11:19.468Z,64.76
2023-04-16T12:12:19.488Z,64.65
2023-04-16T12:13:19.444Z,65.16
2023-04-16T12:14:19.403Z,65.47
2023-04-16T12:15:20.395Z,64.96
2023-04-16T12:16:19.456Z,65.06
2023-04-16T12:17:20.808Z,65.26
2023-04-16T12:18:19.374Z,65.03
2023-04-16T12:19:19.377Z,64.15
2023-04-16T12:20:19.466Z,64.45
2023-04-16T12:21:19.379Z,64.52
2023-04-16T12:22:19.352Z,64.04
2023-04-16T12:23:19.307Z,63.95
2023-04-16T12:24:19.318Z,64.04
2023-04-16T12:25:19.337Z,64.65
2023-04-16T12:26:19.299Z,64.45
2023-04-16T12:27:19.273Z,64.55
2023-04-16T12:28:19.274Z,64.35
2023-04-16T12:29:19.264Z,63.67
2023-04-16T12:30:19.389Z,63.47
2023-04-16T12:31:19.299Z,63.70
2023-04-16T12:32:19.343Z,63.20
2023-04-16T12:33:20.663Z,63.93
2023-04-16T12:34:19.239Z,64.95
2023-04-16T12:35:20.638Z,65.45
2023-04-16T12:36:19.175Z,65.56
2023-04-16T12:37:20.618Z,65.45
2023-04-16T12:38:22.162Z,65.05
2023-04-16T12:39:19.183Z,64.95
2023-04-16T12:40:19.135Z,64.95
2023-04-16T12:41:19.133Z,64.92
2023-04-16T12:42:19.284Z,64.69
2023-04-16T12:43:19.080Z,64.45
2023-04-16T12:44:19.120Z,64.15
2023-04-16T12:45:20.069Z,63.44
2023-04-16T12:46:19.115Z,63.13
2023-04-16T12:47:19.075Z,63.24
2023-04-16T12:48:19.036Z,63.04
2023-04-16T12:49:19.035Z,63.37
2023-04-16T12:50:19.032Z,63.67
2023-04-16T12:51:19.016Z,63.47
2023-04-16T12:52:18.999Z,63.81